Terminal Aerodrome Forecast
Issued by NWS

Home | Current Version | Previous Version | Text Only | Print | Product List | Glossary On
Versions: 1 2 3 4 5 6 7 8 9 10 11 12 13 14 15 16 17 18 19
000
FTUS43 KAPX 261742
TAFMBL
TAF
KMBL 261742Z 2618/2718 26011G20KT P6SM SCT025 OVC035
      TEMPO 2618/2621 BKN025 OVC035
     FM262100 29009KT P6SM VCSH OVC025
     FM262300 33009KT P6SM VCSH OVC025
     FM270100 33007KT P6SM BKN035
     FM270300 30005KT P6SM BKN080
     FM270400 30004KT P6SM SCT100=

USA.gov is the U.S. government's official web portal to all federal, state and local government web resources and services.